Time;durP1;ratioP1;P1;durP2;ratioP2;P2;SDS_P1;SDS_P2;PMS_P1;PMS_P2;Temp;Humidity;BMP_temperature;BMP_pressure;BME280_temperature;BME280_humidity;BME280_pressure;Samples;Min_cycle;Max_cycle;Signal;HPM_P1;HPM_P2
2022/04/05 00:00:53;;;;;;;10.30;7.83;;;;;;;4.91;100.00;96143.63;5063912;28;20204;-83
2022/04/05 00:03:20;;;;;;;12.73;8.20;;;;;;;4.99;100.00;96142.63;5063567;28;20213;-82
2022/04/05 00:05:49;;;;;;;11.23;7.60;;;;;;;5.03;100.00;96138.53;5064296;28;20189;-82
2022/04/05 00:08:16;;;;;;;12.13;8.23;;;;;;;5.07;100.00;96145.13;5054028;28;20295;-82
2022/04/05 00:10:43;;;;;;;10.17;7.93;;;;;;;5.09;100.00;96140.41;5058254;28;20492;-82
2022/04/05 00:13:11;;;;;;;12.53;8.40;;;;;;;5.08;100.00;96136.09;5067681;28;20213;-82
2022/04/05 00:15:38;;;;;;;11.63;8.23;;;;;;;5.08;100.00;96135.25;5062634;28;20198;-82
2022/04/05 00:18:05;;;;;;;13.03;8.37;;;;;;;5.01;100.00;96135.25;5057172;28;20559;-82
2022/04/05 00:20:32;;;;;;;10.03;7.87;;;;;;;5.03;100.00;96135.00;5059680;28;20224;-82
2022/04/05 00:23:01;;;;;;;10.63;7.67;;;;;;;5.01;100.00;96129.06;5057632;28;20224;-82
2022/04/05 00:25:28;;;;;;;11.47;8.33;;;;;;;5.00;100.00;96128.22;5063165;28;20209;-82
2022/04/05 00:27:55;;;;;;;12.43;8.00;;;;;;;4.92;100.00;96109.69;5060202;28;20279;-82
2022/04/05 00:30:22;;;;;;;9.80;7.97;;;;;;;4.91;100.00;96113.38;5059779;28;20328;-82
2022/04/05 00:32:50;;;;;;;9.60;7.10;;;;;;;4.90;100.00;96106.38;5061418;28;20247;-82
2022/04/05 00:35:17;;;;;;;11.37;7.63;;;;;;;4.83;100.00;96095.66;5053275;28;20350;-82
2022/04/05 00:37:44;;;;;;;11.23;7.87;;;;;;;4.92;100.00;96110.50;5064391;28;20205;-82
2022/04/05 00:40:13;;;;;;;8.90;6.77;;;;;;;5.01;100.00;96111.16;5052326;28;20217;-82
2022/04/05 00:42:40;;;;;;;10.20;7.80;;;;;;;5.00;100.00;96104.16;5058429;28;20194;-82
2022/04/05 00:45:09;;;;;;;9.37;6.90;;;;;;;5.06;100.00;96099.84;5060075;28;20248;-82
2022/04/05 00:47:37;;;;;;;11.27;7.63;;;;;;;5.08;100.00;96103.97;5075520;28;20264;-82
2022/04/05 00:50:06;;;;;;;10.60;7.80;;;;;;;5.04;100.00;96108.06;5058388;28;20206;-82
2022/04/05 00:52:33;;;;;;;10.03;7.77;;;;;;;5.00;100.00;96106.84;5055689;28;20213;-82
2022/04/05 00:55:01;;;;;;;10.60;7.90;;;;;;;5.00;100.00;96109.50;5062602;28;20208;-82
2022/04/05 00:57:32;;;;;;;11.47;7.50;;;;;;;5.07;100.00;96099.63;5053159;28;20202;-82
2022/04/05 01:00:04;;;;;;;9.00;7.77;;;;;;;5.06;100.00;96100.66;5062383;28;20255;-82
2022/04/05 01:02:36;;;;;;;10.53;8.00;;;;;;;5.01;100.00;96105.81;5064508;28;20204;-82
2022/04/05 01:05:05;;;;;;;10.30;7.80;;;;;;;5.07;100.00;96105.00;5060640;28;20259;-82
2022/04/05 01:07:34;;;;;;;10.33;7.87;;;;;;;5.11;100.00;96100.88;5059196;28;20229;-82
2022/04/05 01:14:22;;;;;;;11.17;7.93;;;;;;;4.89;100.00;96100.19;5052695;28;20297;-82
2022/04/05 01:16:49;;;;;;;11.70;7.77;;;;;;;4.86;100.00;96095.25;5061931;28;20206;-82
2022/04/05 01:19:16;;;;;;;10.77;8.30;;;;;;;4.88;100.00;96092.38;5064440;28;20201;-82
2022/04/05 01:21:43;;;;;;;11.27;7.63;;;;;;;4.90;100.00;96088.47;5052892;28;20202;-82
2022/04/05 01:24:13;;;;;;;12.93;8.63;;;;;;;4.94;100.00;96091.56;5050304;28;20226;-82
2022/04/05 01:26:44;;;;;;;10.90;8.03;;;;;;;4.95;100.00;96080.66;5058249;28;20356;-82
2022/04/05 01:29:12;;;;;;;10.10;8.13;;;;;;;4.99;100.00;96083.78;5061928;28;20217;-82
2022/04/05 01:31:40;;;;;;;11.80;8.63;;;;;;;4.97;100.00;96079.63;5063852;28;20240;-82
2022/04/05 01:34:08;;;;;;;11.43;8.47;;;;;;;4.93;100.00;96079.22;5061626;28;20213;-82
2022/04/05 01:36:41;;;;;;;11.07;8.10;;;;;;;4.80;100.00;96068.47;5063032;28;20265;-82
2022/04/05 01:39:08;;;;;;;13.20;8.07;;;;;;;4.80;100.00;96069.31;5064656;28;20259;-82
2022/04/05 01:41:37;;;;;;;11.57;8.40;;;;;;;4.79;100.00;96064.16;5055729;28;20198;-82
2022/04/05 01:44:05;;;;;;;11.10;8.20;;;;;;;4.86;100.00;96073.00;5051108;28;20276;-82
2022/04/05 01:46:32;;;;;;;11.43;7.73;;;;;;;4.86;100.00;96070.34;5070940;28;20210;-82
2022/04/05 01:48:59;;;;;;;13.03;8.37;;;;;;;4.83;100.00;96065.41;5055710;28;20230;-82
2022/04/05 01:51:27;;;;;;;11.00;8.03;;;;;;;4.80;100.00;96069.31;5059252;28;20247;-82
2022/04/05 01:53:57;;;;;;;11.13;8.10;;;;;;;4.80;100.00;96063.94;5061311;28;20206;-82
2022/04/05 01:56:24;;;;;;;10.47;7.53;;;;;;;4.90;100.00;96069.75;5061499;28;20217;-82
2022/04/05 01:58:52;;;;;;;9.87;7.27;;;;;;;4.93;100.00;96063.19;5057708;28;20206;-82
2022/04/05 02:01:20;;;;;;;13.23;6.97;;;;;;;4.96;100.00;96068.13;5062431;28;20213;-82
2022/04/05 02:03:47;;;;;;;8.97;7.03;;;;;;;4.97;100.00;96063.59;5060801;28;20197;-82
2022/04/05 02:06:14;;;;;;;9.57;7.10;;;;;;;4.94;100.00;96059.44;5057807;28;20202;-82
2022/04/05 02:08:41;;;;;;;9.27;7.00;;;;;;;4.88;100.00;96055.75;5056215;28;20232;-82
2022/04/05 02:11:08;;;;;;;10.53;7.47;;;;;;;4.85;100.00;96052.63;5060558;28;20198;-82
2022/04/05 02:13:37;;;;;;;12.50;8.47;;;;;;;4.80;100.00;96057.78;5064737;28;20201;-82
2022/04/05 02:16:07;;;;;;;11.47;9.03;;;;;;;4.74;100.00;96053.25;5062851;28;20213;-82
2022/04/05 02:18:37;;;;;;;12.70;8.40;;;;;;;4.78;100.00;96059.81;5051705;28;20202;-82
2022/04/05 02:21:05;;;;;;;13.07;9.17;;;;;;;4.76;100.00;96056.53;5059777;28;20251;-82
2022/04/05 02:23:33;;;;;;;12.83;8.57;;;;;;;4.68;100.00;96041.47;5065595;28;20213;-82
2022/04/05 02:26:13;;;;;;;11.77;8.30;;;;;;;4.66;100.00;96045.41;5064437;28;20208;-82
2022/04/05 02:28:47;;;;;;;11.07;8.17;;;;;;;4.65;100.00;96049.09;5059450;28;20287;-82
2022/04/05 02:31:18;;;;;;;10.53;7.83;;;;;;;4.79;100.00;96056.13;5064850;28;20205;-82
2022/04/05 02:33:46;;;;;;;12.60;7.40;;;;;;;4.83;100.00;96057.38;5060345;28;20219;-82
2022/04/05 02:36:22;;;;;;;10.33;7.30;;;;;;;4.84;100.00;96061.72;5055807;28;20206;-82
2022/04/05 02:38:51;;;;;;;9.93;7.00;;;;;;;4.90;100.00;96068.94;5059580;28;20233;-82
2022/04/05 02:41:19;;;;;;;10.97;8.43;;;;;;;4.90;100.00;96064.41;5058857;28;20205;-82
2022/04/05 02:43:46;;;;;;;9.47;7.90;;;;;;;4.98;100.00;96068.75;5057670;28;20241;-82
2022/04/05 02:46:13;;;;;;;11.87;8.30;;;;;;;5.00;100.00;96069.38;5057018;28;20252;-82
2022/04/05 02:48:46;;;;;;;12.83;8.30;;;;;;;4.97;100.00;96068.94;5060185;28;20240;-82
2022/04/05 02:51:21;;;;;;;10.20;7.67;;;;;;;4.91;100.00;96058.03;5053619;28;20217;-82
2022/04/05 02:53:49;;;;;;;9.90;7.43;;;;;;;4.97;100.00;96061.75;5052251;28;20289;-82
2022/04/05 02:56:17;;;;;;;9.90;7.80;;;;;;;4.95;100.00;96061.09;5058527;28;20294;-82
2022/04/05 02:58:47;;;;;;;11.87;8.17;;;;;;;5.01;100.00;96065.66;5074582;28;20209;-82
2022/04/05 03:01:17;;;;;;;11.70;7.93;;;;;;;5.04;100.00;96077.81;5065327;28;20202;-82
2022/04/05 03:03:47;;;;;;;10.80;8.10;;;;;;;5.07;100.00;96066.69;5051657;28;20212;-82
2022/04/05 03:06:16;;;;;;;9.63;7.47;;;;;;;5.05;100.00;96061.53;5061081;28;20202;-82
2022/04/05 03:08:44;;;;;;;10.43;8.07;;;;;;;5.09;100.00;96064.66;5064524;28;20226;-82
2022/04/05 03:11:13;;;;;;;11.27;7.70;;;;;;;5.09;100.00;96057.44;5062958;28;20198;-82
2022/04/05 03:13:40;;;;;;;11.00;8.13;;;;;;;5.08;100.00;96061.16;5056534;28;20214;-82
2022/04/05 03:16:09;;;;;;;11.97;8.07;;;;;;;5.09;100.00;96051.28;5059394;28;20209;-82
2022/04/05 03:18:38;;;;;;;10.33;7.73;;;;;;;5.04;100.00;96054.53;5059891;28;20287;-82
2022/04/05 03:21:08;;;;;;;10.27;8.00;;;;;;;4.99;100.00;96051.66;5051250;28;20205;-82
2022/04/05 03:23:35;;;;;;;10.27;7.97;;;;;;;5.05;100.00;96063.41;5067569;28;20225;-82
2022/04/05 03:26:02;;;;;;;12.93;8.53;;;;;;;5.00;100.00;96052.50;5064316;28;20213;-82
2022/04/05 03:28:32;;;;;;;11.47;8.20;;;;;;;4.97;100.00;96064.41;5058451;28;20318;-82
2022/04/05 03:31:01;;;;;;;10.97;8.27;;;;;;;4.96;100.00;96068.13;5062883;28;20205;-82
2022/04/05 03:33:28;;;;;;;16.40;11.43;;;;;;;4.97;100.00;96072.44;5060338;28;20206;-82
2022/04/05 03:35:56;;;;;;;10.83;8.13;;;;;;;5.05;100.00;96088.31;5053571;28;20229;-82
2022/04/05 03:38:27;;;;;;;13.60;7.93;;;;;;;5.03;100.00;96079.66;5054377;28;20236;-82
2022/04/05 03:40:55;;;;;;;11.57;8.00;;;;;;;5.03;100.00;96089.53;5059154;28;20272;-82
2022/04/05 03:43:23;;;;;;;12.50;9.53;;;;;;;4.95;100.00;96087.88;5059352;28;20229;-82
2022/04/05 03:45:54;;;;;;;20.93;13.80;;;;;;;4.89;100.00;96100.19;5060892;28;20241;-82
2022/04/05 03:48:23;;;;;;;19.73;12.77;;;;;;;4.85;100.00;96092.75;5051530;28;20317;-82
2022/04/05 03:50:52;;;;;;;19.43;12.23;;;;;;;4.85;100.00;96098.13;5062803;28;20198;-82
2022/04/05 03:53:19;;;;;;;14.83;10.20;;;;;;;4.88;100.00;96097.72;5049514;28;20194;-82
2022/04/05 03:55:49;;;;;;;16.80;11.67;;;;;;;4.90;100.00;96106.38;5056786;28;20213;-82
2022/04/05 03:58:16;;;;;;;24.40;12.37;;;;;;;4.88;100.00;96097.72;5058443;28;20210;-82
2022/04/05 04:00:46;;;;;;;11.57;8.80;;;;;;;4.95;100.00;96101.25;5057465;28;20284;-82
2022/04/05 04:03:19;;;;;;;16.03;10.30;;;;;;;4.97;100.00;96085.00;5063502;28;20287;-82
2022/04/05 04:05:48;;;;;;;13.57;9.40;;;;;;;4.93;100.00;96084.59;5050342;28;20214;-82
2022/04/05 04:08:15;;;;;;;15.33;10.50;;;;;;;4.89;100.00;96089.50;5053862;28;20217;-82
2022/04/05 04:10:47;;;;;;;13.57;9.83;;;;;;;4.83;100.00;96084.13;5050473;28;20206;-82
2022/04/05 04:13:16;;;;;;;11.77;8.07;;;;;;;4.79;100.00;96081.03;5062472;28;20281;-82
2022/04/05 04:15:47;;;;;;;11.23;8.07;;;;;;;4.74;100.00;96074.63;5063464;28;20262;-82
2022/04/05 04:18:16;;;;;;;11.80;8.10;;;;;;;4.73;100.00;96072.97;5055811;28;20201;-82
2022/04/05 04:20:48;;;;;;;13.13;8.63;;;;;;;4.71;100.00;96059.81;5057430;28;20206;-82
2022/04/05 04:23:18;;;;;;;11.33;8.70;;;;;;;4.68;100.00;96064.75;5058874;28;20230;-82
2022/04/05 04:25:48;;;;;;;12.27;7.67;;;;;;;4.67;100.00;96063.09;5057358;28;20290;-82
2022/04/05 04:28:17;;;;;;;11.37;8.43;;;;;;;4.60;100.00;96067.56;5063734;28;20221;-82
2022/04/05 04:30:45;;;;;;;13.47;8.80;;;;;;;4.60;100.00;96054.19;5064596;28;20205;-82
2022/04/05 04:33:13;;;;;;;11.80;8.00;;;;;;;4.66;100.00;96056.09;5050205;28;20228;-82
2022/04/05 04:35:42;;;;;;;10.00;7.33;;;;;;;4.78;100.00;96065.16;5062385;28;20212;-82
2022/04/05 04:38:10;;;;;;;9.33;7.53;;;;;;;4.78;100.00;96067.84;5070733;28;20216;-82
2022/04/05 04:40:37;;;;;;;13.70;8.53;;;;;;;4.76;100.00;96062.72;5060905;28;20208;-82
2022/04/05 04:43:05;;;;;;;16.47;8.47;;;;;;;4.83;100.00;96063.56;5052809;28;20222;-82
2022/04/05 04:45:34;;;;;;;13.83;9.23;;;;;;;4.85;100.00;96066.00;5055758;28;20209;-82
2022/04/05 04:48:01;;;;;;;12.23;8.20;;;;;;;4.81;100.00;96054.09;5064703;28;20229;-82
2022/04/05 04:50:28;;;;;;;16.13;8.50;;;;;;;4.77;100.00;96050.16;5059322;28;20206;-82
2022/04/05 04:52:56;;;;;;;10.13;7.43;;;;;;;4.84;100.00;96051.00;5069877;28;20300;-82
2022/04/05 04:55:25;;;;;;;8.40;6.70;;;;;;;4.94;100.00;96054.09;5053155;28;20213;-82
2022/04/05 04:57:52;;;;;;;9.33;6.63;;;;;;;5.03;100.00;96052.06;5057260;28;20228;-82
2022/04/05 05:00:19;;;;;;;8.40;6.00;;;;;;;5.06;100.00;96047.16;5058773;28;20208;-82
2022/04/05 05:02:49;;;;;;;8.93;6.23;;;;;;;5.13;100.00;96041.78;5066414;28;20223;-82
2022/04/05 05:05:17;;;;;;;10.27;6.53;;;;;;;5.24;100.00;96054.59;5062008;28;20206;-82
2022/04/05 05:07:45;;;;;;;9.07;7.07;;;;;;;5.20;100.00;96059.50;5070182;28;20230;-82
2022/04/05 05:10:12;;;;;;;9.30;6.87;;;;;;;5.08;100.00;96061.16;5066769;28;20255;-82
2022/04/05 05:12:40;;;;;;;13.30;8.40;;;;;;;5.00;100.00;96047.97;5065141;28;20208;-82
2022/04/05 05:15:08;;;;;;;10.90;7.33;;;;;;;5.00;100.00;96056.00;5069627;28;20209;-82
2022/04/05 05:17:35;;;;;;;9.97;6.90;;;;;;;4.90;100.00;96045.69;5067812;28;20201;-82
2022/04/05 05:20:04;;;;;;;9.97;7.30;;;;;;;4.94;100.00;96056.78;5062526;28;20216;-82
2022/04/05 05:22:32;;;;;;;8.97;6.47;;;;;;;4.92;100.00;96054.34;5059900;28;20324;-82
2022/04/05 05:24:59;;;;;;;9.10;6.77;;;;;;;4.98;100.00;96057.22;5056421;28;20226;-82
2022/04/05 05:27:26;;;;;;;9.70;6.33;;;;;;;5.01;100.00;96049.63;5061649;28;20229;-82
2022/04/05 05:29:53;;;;;;;7.83;6.00;;;;;;;5.14;100.00;96038.09;5068295;28;20245;-82
2022/04/05 05:32:20;;;;;;;9.47;6.13;;;;;;;5.23;100.00;96039.53;5066670;28;20299;-82
2022/04/05 05:34:48;;;;;;;9.03;6.70;;;;;;;5.28;100.00;96045.94;5067575;28;20201;-82
2022/04/05 05:37:16;;;;;;;8.40;6.43;;;;;;;5.31;100.00;96045.53;5058206;28;20220;-82
2022/04/05 05:39:43;;;;;;;6.93;5.47;;;;;;;5.40;100.00;96054.19;5055567;28;20206;-82
2022/04/05 05:42:10;;;;;;;6.77;5.10;;;;;;;5.44;100.00;96054.63;5064049;28;20206;-82
2022/04/05 05:44:37;;;;;;;6.17;4.60;;;;;;;5.47;100.00;96048.81;5059906;28;20244;-82
2022/04/05 05:47:05;;;;;;;7.30;5.00;;;;;;;5.48;100.00;96045.94;5064746;28;20607;-82
2022/04/05 05:49:32;;;;;;;5.37;4.57;;;;;;;5.44;100.00;96044.72;5058413;28;20230;-82
2022/04/05 05:51:59;;;;;;;5.43;4.50;;;;;;;5.50;100.00;96053.78;5056522;28;20216;-82
2022/04/05 05:54:28;;;;;;;5.23;4.33;;;;;;;5.50;100.00;96046.56;5057066;28;20210;-82
2022/04/05 05:56:55;;;;;;;5.80;4.47;;;;;;;5.57;100.00;96055.44;5055801;28;20217;-83
2022/04/05 05:59:24;;;;;;;6.47;4.20;;;;;;;5.59;100.00;96049.88;5053552;28;20213;-82
2022/04/05 06:01:51;;;;;;;5.77;4.40;;;;;;;5.62;100.00;96044.91;5061801;28;20206;-82
2022/04/05 06:04:18;;;;;;;4.90;3.83;;;;;;;5.70;100.00;96046.53;5051285;28;20207;-82
2022/04/05 06:06:46;;;;;;;5.73;4.20;;;;;;;5.85;100.00;96051.72;5057591;28;20267;-82
2022/04/05 06:09:13;;;;;;;4.40;3.80;;;;;;;5.77;99.62;96047.41;5054616;28;20226;-81
2022/04/05 06:11:41;;;;;;;4.93;3.97;;;;;;;5.85;100.00;96052.53;5053976;28;20209;-81
2022/04/05 06:14:08;;;;;;;11.20;5.67;;;;;;;5.89;100.00;96051.09;5057193;28;20209;-81
2022/04/05 06:16:35;;;;;;;11.30;6.10;;;;;;;5.90;100.00;96060.78;5065557;28;20324;-81
2022/04/05 06:19:02;;;;;;;12.00;6.33;;;;;;;5.94;100.00;96062.03;5063648;28;20214;-81
2022/04/05 06:21:29;;;;;;;10.07;6.10;;;;;;;6.01;100.00;96075.41;5060247;28;20300;-81
2022/04/05 06:23:56;;;;;;;7.03;5.30;;;;;;;5.93;100.00;96071.09;5064231;28;20251;-81
2022/04/05 06:26:23;;;;;;;8.63;5.93;;;;;;;5.97;100.00;96068.81;5057754;28;20228;-81
2022/04/05 06:28:54;;;;;;;7.60;5.40;;;;;;;5.98;100.00;96067.78;5051864;28;20281;-81
2022/04/05 06:31:21;;;;;;;9.00;5.43;;;;;;;5.98;100.00;96067.78;5064242;28;20780;-81
2022/04/05 06:33:48;;;;;;;8.80;6.40;;;;;;;6.03;100.00;96079.56;5055891;28;20572;-80
2022/04/05 06:36:15;;;;;;;11.40;7.23;;;;;;;6.08;100.00;96074.38;5056501;28;20242;-81
2022/04/05 06:38:45;;;;;;;10.90;7.03;;;;;;;6.11;100.00;96073.16;5064101;28;20269;-81
2022/04/05 06:41:12;;;;;;;9.60;6.17;;;;;;;6.07;100.00;96077.25;5060040;28;20226;-81
2022/04/05 06:43:39;;;;;;;7.43;5.70;;;;;;;6.11;100.00;96083.03;5079813;28;20237;-81
2022/04/05 06:46:08;;;;;;;6.87;5.57;;;;;;;6.04;100.00;96078.50;5058594;28;20201;-81
2022/04/05 06:48:35;;;;;;;5.80;5.00;;;;;;;6.05;100.00;96085.50;5050428;28;20236;-81
2022/04/05 06:51:02;;;;;;;7.87;5.57;;;;;;;6.06;100.00;96089.00;5053809;28;20249;-81
2022/04/05 06:53:30;;;;;;;8.13;5.23;;;;;;;6.04;100.00;96086.53;5056218;28;20271;-81
2022/04/05 06:55:57;;;;;;;7.10;5.70;;;;;;;6.09;100.00;96102.00;5054804;28;20259;-82
2022/04/05 06:58:24;;;;;;;8.10;6.07;;;;;;;6.13;100.00;96105.06;5054523;28;20559;-81
2022/04/05 07:00:52;;;;;;;9.63;6.07;;;;;;;6.14;100.00;96093.31;5058972;28;20247;-81
2022/04/05 07:03:20;;;;;;;9.13;6.47;;;;;;;6.26;100.00;96105.91;5061101;28;20209;-81
2022/04/05 07:05:48;;;;;;;7.60;6.57;;;;;;;6.28;100.00;96103.00;5065874;28;20221;-81
2022/04/05 07:08:15;;;;;;;13.47;7.47;;;;;;;6.36;100.00;96111.66;5056103;28;20212;-81
2022/04/05 07:10:42;;;;;;;10.23;6.93;;;;;;;6.43;100.00;96098.22;5059466;28;20303;-81
2022/04/05 07:13:09;;;;;;;10.90;7.17;;;;;;;6.46;100.00;96103.97;5051150;28;20230;-82
2022/04/05 07:15:36;;;;;;;9.83;7.73;;;;;;;6.41;100.00;96108.34;5056374;28;20205;-82
2022/04/05 07:18:04;;;;;;;9.50;7.10;;;;;;;6.43;100.00;96108.97;5061904;28;20237;-82
2022/04/05 07:20:34;;;;;;;11.47;8.20;;;;;;;6.33;100.00;96109.38;5059400;28;20206;-82
2022/04/05 07:23:01;;;;;;;14.00;8.17;;;;;;;6.34;100.00;96118.25;5058507;28;20221;-81
2022/04/05 07:25:28;;;;;;;12.40;8.10;;;;;;;6.29;100.00;96112.72;5063281;28;20202;-82
2022/04/05 07:27:55;;;;;;;8.83;7.00;;;;;;;6.27;100.00;96112.91;5056225;28;20206;-82
2022/04/05 07:30:24;;;;;;;11.43;7.73;;;;;;;6.32;100.00;96123.00;5064050;28;20225;-81
2022/04/05 07:32:51;;;;;;;10.80;7.53;;;;;;;6.33;100.00;96117.44;5063228;28;20233;-82
2022/04/05 07:35:19;;;;;;;12.30;7.43;;;;;;;6.38;100.00;96106.09;5058454;28;20209;-83
2022/04/05 07:37:47;;;;;;;10.07;7.10;;;;;;;6.39;100.00;96113.91;5060892;28;20218;-82
2022/04/05 07:40:15;;;;;;;7.97;6.57;;;;;;;6.44;100.00;96114.13;5061690;28;20300;-81
2022/04/05 07:42:44;;;;;;;10.70;7.00;;;;;;;6.42;100.00;96118.84;5057018;28;20206;-82
2022/04/05 07:45:13;;;;;;;10.00;8.10;;;;;;;6.42;100.00;96115.34;5057250;28;20363;-82
2022/04/05 07:47:41;;;;;;;10.20;8.10;;;;;;;6.44;100.00;96121.34;5055453;28;20251;-83
2022/04/05 07:50:10;;;;;;;10.70;7.80;;;;;;;6.48;100.00;96111.81;5063644;28;20226;-83
2022/04/05 07:52:37;;;;;;;9.97;7.47;;;;;;;6.47;100.00;96112.84;5064507;28;20205;-89
2022/04/05 07:55:08;;;;;;;9.67;7.67;;;;;;;6.46;100.00;96112.03;5057603;28;20259;-88
2022/04/05 07:57:36;;;;;;;11.77;7.63;;;;;;;6.41;100.00;96116.38;5065901;28;20218;-88
2022/04/05 08:00:05;;;;;;;11.93;8.30;;;;;;;6.42;100.00;96118.84;5063721;28;20296;-86
2022/04/05 08:02:39;;;;;;;13.77;8.87;;;;;;;6.47;100.00;96120.91;5064022;28;20287;-88
2022/04/05 08:05:07;;;;;;;8.70;7.30;;;;;;;6.44;100.00;96119.47;5063283;28;20216;-89
2022/04/05 08:07:34;;;;;;;11.60;7.83;;;;;;;6.42;100.00;96126.06;5064863;28;20229;-89
2022/04/05 08:10:02;;;;;;;10.87;7.57;;;;;;;6.39;100.00;96124.63;5057234;28;20253;-89
2022/04/05 08:12:39;;;;;;;12.40;7.77;;;;;;;6.30;100.00;96108.97;5059789;28;20210;-88
2022/04/05 08:15:07;;;;;;;10.27;7.40;;;;;;;6.33;100.00;96119.28;5058482;28;20206;-89
2022/04/05 08:17:35;;;;;;;10.40;7.37;;;;;;;6.37;100.00;96123.22;5062733;28;20211;-88
2022/04/05 08:20:02;;;;;;;11.23;7.93;;;;;;;6.41;100.00;96119.06;5051801;28;20217;-90
2022/04/05 08:22:29;;;;;;;12.13;7.40;;;;;;;6.39;100.00;96108.53;5059919;28;20209;-89
2022/04/05 08:24:56;;;;;;;10.40;7.00;;;;;;;6.39;100.00;96110.41;5064007;28;20240;-88
2022/04/05 08:27:23;;;;;;;13.83;9.00;;;;;;;6.40;100.00;96106.69;5060236;28;20264;-86
2022/04/05 08:29:52;;;;;;;11.13;8.63;;;;;;;6.47;100.00;96116.34;5056526;28;20290;-89
2022/04/05 08:32:19;;;;;;;11.50;8.13;;;;;;;6.48;100.00;96111.81;5060979;28;20197;-87
2022/04/05 08:34:46;;;;;;;15.07;8.73;;;;;;;6.45;100.00;96117.63;5054670;28;20198;-87
2022/04/05 08:37:14;;;;;;;14.27;9.03;;;;;;;6.45;100.00;96114.94;5063220;28;20209;-88
2022/04/05 08:39:42;;;;;;;12.10;8.43;;;;;;;6.45;100.00;96120.31;5064978;28;20201;-88
2022/04/05 08:42:10;;;;;;;10.73;7.80;;;;;;;6.45;100.00;96112.25;5059054;28;20212;-88
2022/04/05 08:44:39;;;;;;;13.50;9.47;;;;;;;6.45;100.00;96107.72;5074921;28;20237;-88
2022/04/05 08:47:09;;;;;;;12.63;8.13;;;;;;;6.49;100.00;96108.09;5058401;28;20205;-89
2022/04/05 08:49:38;;;;;;;11.00;7.63;;;;;;;6.53;100.00;96108.53;5064350;28;20217;-87
2022/04/05 08:52:05;;;;;;;12.87;8.27;;;;;;;6.61;100.00;96097.56;5051226;28;20292;-88
2022/04/05 08:54:33;;;;;;;9.77;6.40;;;;;;;6.56;100.00;96092.81;5055701;28;20206;-88
2022/04/05 08:57:00;;;;;;;10.23;6.67;;;;;;;6.51;100.00;96094.50;5052326;28;20205;-87
2022/04/05 08:59:30;;;;;;;6.10;4.67;;;;;;;6.53;100.00;96082.53;5053116;28;20261;-87
2022/04/05 09:01:58;;;;;;;5.00;3.97;;;;;;;6.52;100.00;96080.03;5053618;28;20208;-88
2022/04/05 09:04:33;;;;;;;5.43;3.93;;;;;;;6.68;100.00;96085.75;5061516;28;20223;-88
2022/04/05 09:07:19;;;;;;;6.07;4.27;;;;;;;6.79;100.00;96086.97;5063579;28;20209;-89
2022/04/05 09:09:46;;;;;;;5.90;4.47;;;;;;;6.92;100.00;96070.78;5050734;28;20275;-89
2022/04/05 09:12:17;;;;;;;4.67;3.80;;;;;;;6.92;100.00;96069.97;5051832;28;20229;-89
2022/04/05 09:14:45;;;;;;;6.50;4.40;;;;;;;7.11;100.00;96071.72;5059812;28;20206;-88
2022/04/05 09:17:13;;;;;;;6.53;4.07;;;;;;;6.97;100.00;96064.78;5056997;28;20214;-88
2022/04/05 09:19:45;;;;;;;4.03;3.33;;;;;;;7.08;100.00;96075.66;5056371;28;20210;-88
2022/04/05 09:22:13;;;;;;;4.57;3.47;;;;;;;7.17;100.00;96060.94;5059343;28;20204;-88
2022/04/05 09:24:43;;;;;;;4.00;3.00;;;;;;;7.27;100.00;96059.66;5062689;28;20283;-87
2022/04/05 09:27:11;;;;;;;4.00;2.57;;;;;;;7.26;100.00;96072.25;5055171;28;20206;-87
2022/04/05 09:29:39;;;;;;;3.97;3.10;;;;;;;7.36;100.00;96056.50;5052301;28;20521;-87
2022/04/05 09:32:07;;;;;;;4.77;2.97;;;;;;;7.33;100.00;96050.72;5061627;28;20204;-88
2022/04/05 09:34:34;;;;;;;4.30;3.57;;;;;;;7.40;100.00;96055.00;5057256;28;20266;-89
2022/04/05 09:37:09;;;;;;;3.60;3.17;;;;;;;7.48;100.00;96049.41;5051895;28;20209;-88
2022/04/05 09:39:36;;;;;;;4.67;3.10;;;;;;;7.52;100.00;96045.22;5062411;28;20285;-89
2022/04/05 09:42:08;;;;;;;3.30;3.00;;;;;;;7.41;98.29;96039.72;5053499;28;20300;-87
2022/04/05 09:44:38;;;;;;;4.67;3.43;;;;;;;7.59;100.00;96029.03;5059714;28;20244;-87
2022/04/05 09:47:07;;;;;;;3.90;3.30;;;;;;;7.77;100.00;96047.06;5051519;28;20218;-88
2022/04/05 09:49:36;;;;;;;4.10;3.70;;;;;;;8.05;100.00;96036.69;5056602;28;20212;-89
2022/04/05 09:52:03;;;;;;;4.83;3.40;;;;;;;8.22;100.00;96045.81;5063450;28;20304;-88
2022/04/05 09:54:35;;;;;;;4.43;3.20;;;;;;;8.45;100.00;96034.44;5064182;28;20201;-88
2022/04/05 09:57:06;;;;;;;4.17;3.33;;;;;;;8.63;100.00;96039.81;5063994;28;20205;-88
2022/04/05 09:59:39;;;;;;;4.63;3.30;;;;;;;8.67;100.00;96032.94;5061639;28;20206;-88
2022/04/05 10:02:12;;;;;;;3.33;3.03;;;;;;;8.53;98.19;96038.69;5062803;28;20215;-89
2022/04/05 10:05:01;;;;;;;3.77;3.37;;;;;;;8.48;100.00;96035.84;5065964;28;20202;-88
2022/04/05 10:07:29;;;;;;;5.00;3.73;;;;;;;8.62;100.00;96034.63;5057140;28;20323;-88
2022/04/05 10:09:59;;;;;;;7.80;5.13;;;;;;;8.89;100.00;96035.97;5073339;28;20208;-90
2022/04/05 10:12:27;;;;;;;7.03;4.03;;;;;;;9.02;100.00;96032.25;5059016;28;20233;-88
2022/04/05 10:14:55;;;;;;;5.63;4.80;;;;;;;8.97;100.00;96032.13;5057422;28;20273;-88
2022/04/05 10:17:27;;;;;;;7.87;4.73;;;;;;;8.92;100.00;96029.31;5061884;28;20197;-89
2022/04/05 10:19:56;;;;;;;7.47;5.23;;;;;;;8.87;100.00;96027.28;5067099;28;20212;-88
2022/04/05 10:22:24;;;;;;;5.40;4.53;;;;;;;8.89;100.00;96025.19;5066775;28;20198;-89
2022/04/05 10:24:52;;;;;;;5.20;4.20;;;;;;;8.99;100.00;96022.78;5060181;28;20221;-88
2022/04/05 10:27:25;;;;;;;5.53;4.53;;;;;;;8.91;100.00;96014.19;5078858;28;20210;-91
2022/04/05 10:30:03;;;;;;;6.03;4.20;;;;;;;8.91;100.00;96017.72;5055554;28;20283;-90
2022/04/05 10:32:37;;;;;;;5.03;4.07;;;;;;;8.86;100.00;96004.09;5069341;28;20229;-89
2022/04/05 10:35:08;;;;;;;5.10;4.30;;;;;;;8.86;100.00;96009.47;5061716;28;20282;-90
2022/04/05 10:37:36;;;;;;;7.03;4.80;;;;;;;8.88;100.00;96004.69;5053157;28;20221;-90
2022/04/05 10:40:17;;;;;;;6.07;4.87;;;;;;;9.01;100.00;96003.72;5055553;28;20269;-89
2022/04/05 10:42:47;;;;;;;6.00;4.90;;;;;;;8.98;100.00;95993.38;5062233;28;20212;-91
2022/04/05 10:45:17;;;;;;;5.53;4.70;;;;;;;9.03;100.00;95999.72;5054057;28;20226;-90
2022/04/05 10:48:11;;;;;;;5.50;4.53;;;;;;;9.09;100.00;95993.44;5062196;28;20206;-90
2022/04/05 10:50:38;;;;;;;7.30;4.70;;;;;;;9.20;100.00;95991.81;5053164;28;20305;-90
2022/04/05 10:53:14;;;;;;;7.10;4.97;;;;;;;9.14;100.00;95991.91;5058489;28;20202;-90
2022/04/05 10:56:16;;;;;;;7.37;4.80;;;;;;;9.23;100.00;95982.44;5056520;28;20210;-90
2022/04/05 10:59:21;;;;;;;5.27;4.77;;;;;;;9.27;100.00;95987.13;5057702;28;20273;-90
2022/04/05 11:01:48;;;;;;;5.63;4.67;;;;;;;9.27;100.00;95978.25;5074622;28;20206;-91
2022/04/05 11:04:34;;;;;;;5.23;4.73;;;;;;;9.36;100.00;95976.84;5060518;28;20217;-88
2022/04/05 11:07:10;;;;;;;6.17;4.63;;;;;;;9.18;100.00;95985.84;5054671;28;20221;-89
2022/04/05 11:09:54;;;;;;;7.23;4.57;;;;;;;9.15;100.00;95974.69;5074521;28;20263;-88
2022/04/05 11:12:23;;;;;;;5.20;4.40;;;;;;;9.31;100.00;95968.66;5051388;28;20222;-89
2022/04/05 11:14:57;;;;;;;5.33;4.67;;;;;;;9.49;100.00;95973.94;5052827;28;20202;-88
2022/04/05 11:17:28;;;;;;;5.63;4.40;;;;;;;9.51;100.00;95958.38;5052499;28;20234;-89
2022/04/05 11:19:57;;;;;;;7.57;4.60;;;;;;;9.40;100.00;95964.56;5068976;28;20237;-88
2022/04/05 11:22:30;;;;;;;4.73;4.17;;;;;;;9.33;100.00;95958.47;5062981;28;20222;-90
2022/04/05 11:25:00;;;;;;;6.20;4.53;;;;;;;9.49;100.00;95960.47;5058419;28;20229;-91
2022/04/05 11:27:32;;;;;;;4.93;4.23;;;;;;;9.62;100.00;95971.03;5054812;28;20197;-90
2022/04/05 11:30:39;;;;;;;4.67;4.20;;;;;;;9.80;100.00;95970.91;5052232;28;20286;-89
2022/04/05 11:33:34;;;;;;;6.30;4.97;;;;;;;9.98;100.00;95961.06;5047294;28;20217;-91
2022/04/05 11:36:04;;;;;;;7.90;4.93;;;;;;;10.07;100.00;95951.56;5049388;28;20222;-88
2022/04/05 11:38:33;;;;;;;7.87;5.23;;;;;;;10.13;100.00;95956.00;5059009;28;20201;-89
2022/04/05 11:41:03;;;;;;;5.63;4.90;;;;;;;10.17;100.00;95952.63;5054944;28;20212;-89
2022/04/05 11:43:33;;;;;;;7.23;5.33;;;;;;;10.17;100.00;95954.47;5061659;28;20213;-90